ENTOENRO

Guest
Details From ENTO - TORP
To ENRO - ROROS
Flight Number -
Tags generated
Created
Modified
Stats Distance 207 nm / 383 km
Max Altitude 23,500 ft / 7,163 m
Waypoints 5
Social Downloads 6
Likes 0
Share VATSIM

Download

Looking for another format? Having issues loading an existing format? Contact us
Advertisement - Login to hide

Notes

Basic altitude profile: - Ascent Rate: 2500ft/min - Ascent Speed: 250kts - Cruise Altitude: 50000ft - Cruise Speed: 420kts - Descent Rate: 1500ft/min - Descent Speed: 250kts Options: - Use NATs: yes - Use PACOTS: yes - Use low airways: yes - Use high airways: yes

Route

ENTO TRF M609 BBU UM609 MES ENRO

ID Type Via Altitude Latitude Longitude Leg Dist Tot Dist Heading (true) Name
O ENTO APT - 0 ft / 0 m 59.18666˚ 10.25860˚ - 0 nm - TORP
TRF NDB - 15,900 ft / 4,846 m 59.92918˚ 10.26931˚ 44 nm 44 nm 0° / 0° TYRIFJORD NDB
BBU VOR M609 (AWY-LO) 23,500 ft / 7,163 m 60.47178˚ 10.33886˚ 32 nm 77 nm 4° / 4° BRANDBU VOR-DME
MES VOR UM609 (AWY-HI) 23,500 ft / 7,163 m 61.09981˚ 10.64278˚ 38 nm 116 nm 13° / 13° MESNALI VOR-DME
O ENRO APT - 0 ft / 0 m 62.57914˚ 11.34474˚ 91 nm 207 nm 12° / 13° ROROS

Altitude Profile

Advertisement - Login to hide

Weather


0- 5 10 15 20 25 30 35+ Temperature / ° C

Clouds and Precipitation
Forecast for 2017-12-14 12:00 UTC. Updated an hour ago

Ground ~20,000 ft ~40,000 ft Winds

ENTO

Details ICAO ENTO (TRF)
Name TORP
Region Norway
Timezone Europe/Oslo (UTC+1.0)
Stats Elevation 286 ft / 87 m (AMSL)
Location 59.186662° 10.258596°
Runways 1
Magnetic Variation 2.996° E

METAR

ENTO 140820Z 01008KT 9999 -SG OVC007 M03/M03 Q0980

Decode

TAF

TAF ENTO 140500Z 1406/1506 01010KT 9000 -SNRA SCT004 OVC010 TEMPO 1406/1418 1200 -SN BR OVC003 TEMPO 1412/1506 03015G25KT

Decode

Departure Runways

ID Width Length Bearing (true) Bearing (mag) Surface Threshold Offset Overrun Length
18 148 ft / 45 m 9,820 ft / 2,993 m 179.40° 176.40° Asphalt 1,231 ft / 375 m 0 ft / 0 m
36 148 ft / 45 m 9,820 ft / 2,993 m 359.40° 356.40° Asphalt 1,231 ft / 375 m 0 ft / 0 m

ENRO

Details ICAO ENRO (RRS)
Name ROROS
Region Norway
Timezone Europe/Oslo (UTC+1.0)
Stats Elevation 2,054 ft / 626 m (AMSL)
Location 62.579144° 11.344735°
Runways 1
Magnetic Variation 3.635° E

METAR

ENRO 140820Z VRB01KT 7000 -SHSN BKN010 M13/M14 Q0981

Decode

TAF

Not found

Destination Runways

ID Width Length Bearing (true) Bearing (mag) Surface Threshold Offset Overrun Length
14 131 ft / 40 m 5,628 ft / 1,715 m 136.11° 132.47° Asphalt 0 ft / 0 m 0 ft / 0 m
32 131 ft / 40 m 5,628 ft / 1,715 m 316.13° 312.49° Asphalt 0 ft / 0 m 0 ft / 0 m

Approach Navaids

Runway Type Ident Frequency Range Bearing (true) Bearing (mag) Slope Elevation
32 Localiser RO 108.70 MHz 18 nm / 33 km 307.12° 303.48° - 2,075 ft / 632 m (AMSL)
32 Glidescope RO 108.70 MHz 10 nm / 19 km 307.12° 303.48° 3.30° 2,054 ft / 626 m (AMSL)
32 DME RO 108.70 MHz 18 nm / 33 km - - - 2,054 ft / 626 m (AMSL)